Accueil
METAR-TAF:

METAR-TAF

Aéroports :

Aéroport international de Coni

Coni, Italie

latitude: 44-32-47N, longitude: 007-37-20E, altitude: 386 m

Observation

Le bulletin a été fait il y a 4 heures et 27 minutes, à 19:50 UTC
Vent 2 kt de direction variable
Température 6°C
Humidité 93%
Pression 1010 hPa
Visibilité: 8000 m
Quelques nuages à une hauteur de 2500 ft
Nuages fragmentés à une hauteur de 6000 ft

METAR: LIMZ 111950Z VRB02KT 8000 FEW025 BKN060 06/05 Q1010

Heure: 01:17 (00:17 UTC)

Prévision

Le bulletin a été fait il y a 7 heures et 17 minutes, à 17:00 UTC
Prévision valable du 11 à 18 UTC au 12 à 18 UTC
Vent 5 kt de direction variable
Visibilité: 8000 m
Nuages épars à une hauteur de 2500 ft
Nuages fragmentés à une hauteur de 6000 ft
Temporairement
du 11 à 18 UTC au 12 à 03 UTC
pluie

TAF: LIMZ 111700Z 1118/1218 VRB05KT 8000 SCT025 BKN060 TEMPO 1118/1203 RA

Observations et prévisions météorologiques de plus de 4000 aéroports (messages METAR et TAF).

Les stations disponibles sont représentées par des disques jaunes et rouges sur la carte.

Passer la souris dessus pour voir le nom de la station.

Cliquer dessus pour voir les observations et prévisions météorologiques.

Pour changer de carte: cliquez sur les boutons verts avec une croix noire pour zoomer, sur le bouton vert avec un tiret pour effectuer un zoom arrière, ou sur les flèches vertes pour les cartes adjacentes.


METAR-TAF: